Time;durP1;ratioP1;P1;durP2;ratioP2;P2;SDS_P1;SDS_P2;PMS_P1;PMS_P2;Temp;Humidity;BMP_temperature;BMP_pressure;BME280_temperature;BME280_humidity;BME280_pressure;Samples;Min_cycle;Max_cycle;Signal;HPM_P1;HPM_P2
2022/07/25 00:02:01;;;;;;;;;;;;;;;-144.99;100.00;61100.13;5065802;28;19928;-73
2022/07/25 00:04:27;;;;;;;;;;;;;;;-144.99;100.00;61100.13;5067954;28;19928;-73
2022/07/25 00:06:54;;;;;;;;;;;;;;;-144.99;100.00;61100.13;5065906;28;19925;-73
2022/07/25 00:09:22;;;;;;;;;;;;;;;-144.99;100.00;61100.13;5067776;28;20298;-73
2022/07/25 00:11:48;;;;;;;;;;;;;;;-144.99;100.00;61100.13;5066566;28;19929;-72
2022/07/25 00:14:15;;;;;;;;;;;;;;;-144.99;100.00;61100.13;5067435;28;20055;-71
2022/07/25 00:16:41;;;;;;;;;;;;;;;-144.99;100.00;61100.13;5066892;28;19978;-73
2022/07/25 00:19:08;;;;;;;;;;;;;;;-144.99;100.00;61100.13;5067001;28;19935;-72
2022/07/25 00:21:34;;;;;;;;;;;;;;;-144.99;100.00;61100.13;5065080;28;19932;-71
2022/07/25 00:24:01;;;;;;;;;;;;;;;-144.99;100.00;61100.13;5067648;28;19991;-72
2022/07/25 00:26:29;;;;;;;;;;;;;;;-144.99;100.00;61100.13;5066991;28;19962;-73
2022/07/25 00:28:55;;;;;;;;;;;;;;;-144.99;100.00;61100.13;5055920;28;19928;-72
2022/07/25 00:31:22;;;;;;;;;;;;;;;-144.99;100.00;61100.13;5066520;28;20350;-71
2022/07/25 00:33:48;;;;;;;;;;;;;;;-144.99;100.00;61100.13;5065975;28;20307;-72
2022/07/25 00:36:15;;;;;;;;;;;;;;;-144.99;100.00;61100.13;5065312;28;19977;-73
2022/07/25 00:38:41;;;;;;;;;;;;;;;-144.99;100.00;61100.13;5066942;28;19959;-73
2022/07/25 00:41:08;;;;;;;;;;;;;;;-144.99;100.00;61100.13;5055019;28;19936;-72
2022/07/25 00:43:36;;;;;;;;;;;;;;;-144.99;100.00;61100.13;5066171;28;19924;-72
2022/07/25 00:46:02;;;;;;;;;;;;;;;-144.99;100.00;61100.13;5069192;28;19924;-71
2022/07/25 00:48:29;;;;;;;;;;;;;;;-144.99;100.00;61100.13;5069955;28;19924;-73
2022/07/25 00:50:55;;;;;;;;;;;;;;;-144.99;100.00;61100.13;5065242;28;19924;-72
2022/07/25 00:53:22;;;;;;;;;;;;;;;-144.99;100.00;61100.13;5065492;28;19960;-72
2022/07/25 00:55:48;;;;;;;;;;;;;;;-144.99;100.00;61100.13;5065808;28;19924;-70
2022/07/25 00:58:15;;;;;;;;;;;;;;;-144.99;100.00;61100.13;5066297;28;20031;-72
2022/07/25 01:00:43;;;;;;;;;;;;;;;-144.99;100.00;61100.13;5065486;28;19950;-71
2022/07/25 01:03:09;;;;;;;;;;;;;;;-144.99;100.00;61100.13;5065443;28;20346;-72
2022/07/25 01:05:36;;;;;;;;;;;;;;;-144.99;100.00;61100.13;5064181;28;20394;-76
2022/07/25 01:08:02;;;;;;;;;;;;;;;-144.99;100.00;61100.13;5067486;28;19999;-72
2022/07/25 01:10:29;;;;;;;;;;;;;;;-144.99;100.00;61100.13;5055030;28;20464;-73
2022/07/25 01:12:56;;;;;;;;;;;;;;;-144.99;100.00;61100.13;5067783;28;19960;-72
2022/07/25 01:15:23;;;;;;;;;;;;;;;-144.99;100.00;61100.13;5077714;28;19924;-72
2022/07/25 01:17:51;;;;;;;;;;;;;;;-144.99;100.00;61100.13;5068619;28;19924;-73
2022/07/25 01:20:19;;;;;;;;;;;;;;;-144.99;100.00;61100.13;5064894;28;19967;-72
2022/07/25 01:22:46;;;;;;;;;;;;;;;-144.99;100.00;61100.13;5065341;28;19929;-74
2022/07/25 01:25:13;;;;;;;;;;;;;;;-144.99;100.00;61100.13;5066068;28;19925;-72
2022/07/25 01:27:39;;;;;;;;;;;;;;;-144.99;100.00;61100.13;5066351;28;19932;-73
2022/07/25 01:30:07;;;;;;;;;;;;;;;-144.99;100.00;61100.13;5055796;28;19928;-73
2022/07/25 01:32:36;;;;;;;;;;;;;;;-144.99;100.00;61100.13;5065555;28;19928;-72
2022/07/25 01:35:02;;;;;;;;;;;;;;;-144.99;100.00;61100.13;5064411;28;20020;-73
2022/07/25 01:37:30;;;;;;;;;;;;;;;-144.99;100.00;61100.13;5065843;28;19932;-72
2022/07/25 01:39:57;;;;;;;;;;;;;;;-144.99;100.00;61100.13;5066262;28;20013;-74
2022/07/25 01:42:23;;;;;;;;;;;;;;;-144.99;100.00;61100.13;5065200;28;20167;-74
2022/07/25 01:44:50;;;;;;;;;;;;;;;-144.99;100.00;61100.13;5065464;28;20263;-72
2022/07/25 01:47:17;;;;;;;;;;;;;;;-144.99;100.00;61100.13;5065480;28;19928;-72
2022/07/25 01:49:43;;;;;;;;;;;;;;;-144.99;100.00;61100.13;5065219;28;20434;-72
2022/07/25 01:52:10;;;;;;;;;;;;;;;-144.99;100.00;61100.13;5062079;28;20318;-73
2022/07/25 01:54:38;;;;;;;;;;;;;;;-144.99;100.00;61100.13;5065292;28;20387;-72
2022/07/25 01:57:04;;;;;;;;;;;;;;;-144.99;100.00;61100.13;5063875;28;19967;-75
2022/07/25 01:59:31;;;;;;;;;;;;;;;-144.99;100.00;61100.13;5065737;28;20024;-73
2022/07/25 02:01:57;;;;;;;;;;;;;;;-144.99;100.00;61100.13;5064801;28;19967;-73
2022/07/25 02:04:24;;;;;;;;;;;;;;;-144.99;100.00;61100.13;5066153;28;19974;-73
2022/07/25 02:06:51;;;;;;;;;;;;;;;-144.99;100.00;61100.13;5063785;28;19939;-76
2022/07/25 02:09:17;;;;;;;;;;;;;;;-144.99;100.00;61100.13;5075507;28;20311;-73
2022/07/25 02:11:45;;;;;;;;;;;;;;;-144.99;100.00;61100.13;5065922;28;20260;-73
2022/07/25 02:14:11;;;;;;;;;;;;;;;-144.99;100.00;61100.13;5065434;28;20019;-73
2022/07/25 02:16:38;;;;;;;;;;;;;;;-144.99;100.00;61100.13;5065019;28;20018;-73
2022/07/25 02:19:04;;;;;;;;;;;;;;;-144.99;100.00;61100.13;5065799;28;20359;-73
2022/07/25 02:21:31;;;;;;;;;;;;;;;-144.99;100.00;61100.13;5062817;28;20324;-75
2022/07/25 02:23:58;;;;;;;;;;;;;;;-144.99;100.00;61100.13;5066119;28;19928;-74
2022/07/25 02:26:24;;;;;;;;;;;;;;;-144.99;100.00;61100.13;5066139;28;19936;-73
2022/07/25 02:28:52;;;;;;;;;;;;;;;-144.99;100.00;61100.13;5055107;28;20284;-71
2022/07/25 02:31:19;;;;;;;;;;;;;;;-144.99;100.00;61100.13;5065352;28;20273;-73
2022/07/25 02:33:45;;;;;;;;;;;;;;;-144.99;100.00;61100.13;5065415;28;20411;-72
2022/07/25 02:36:12;;;;;;;;;;;;;;;-144.99;100.00;61100.13;5065095;28;20019;-73
2022/07/25 02:38:38;;;;;;;;;;;;;;;-144.99;100.00;61100.13;5065633;28;19968;-75
2022/07/25 02:41:05;;;;;;;;;;;;;;;-144.99;100.00;61100.13;5066971;28;19929;-74
2022/07/25 02:43:32;;;;;;;;;;;;;;;-144.99;100.00;61100.13;5066079;28;19940;-72
2022/07/25 02:46:00;;;;;;;;;;;;;;;-144.99;100.00;61100.13;5065046;28;20380;-76
2022/07/25 02:48:26;;;;;;;;;;;;;;;-144.99;100.00;61100.13;5064286;28;19928;-77
2022/07/25 02:50:53;;;;;;;;;;;;;;;-144.99;100.00;61100.13;5060918;28;20372;-76
2022/07/25 02:53:19;;;;;;;;;;;;;;;-144.99;100.00;61100.13;5096433;22;19941;-73
2022/07/25 02:55:46;;;;;;;;;;;;;;;-144.99;100.00;61100.13;5048772;28;19928;-74
2022/07/25 02:58:13;;;;;;;;;;;;;;;-144.99;100.00;61100.13;5051390;28;19933;-74
2022/07/25 03:00:40;;;;;;;;;;;;;;;-144.99;100.00;61100.13;5051619;28;20434;-75
2022/07/25 03:03:08;;;;;;;;;;;;;;;-144.99;100.00;61100.13;5053536;28;20470;-75
2022/07/25 03:05:34;;;;;;;;;;;;;;;-144.99;100.00;61100.13;5033096;28;19929;-75
2022/07/25 03:08:01;;;;;;;;;;;;;;;-144.99;100.00;61100.13;5033880;28;19925;-75
2022/07/25 03:10:27;;;;;;;;;;;;;;;-144.99;100.00;61100.13;5033324;28;19960;-74
2022/07/25 03:12:54;;;;;;;;;;;;;;;-144.99;100.00;61100.13;5032654;28;19983;-75
2022/07/25 03:15:20;;;;;;;;;;;;;;;-144.99;100.00;61100.13;5033253;28;20093;-74
2022/07/25 03:17:47;;;;;;;;;;;;;;;-144.99;100.00;61100.13;5032967;28;19991;-75
2022/07/25 03:20:15;;;;;;;;;;;;;;;-144.99;100.00;61100.13;5030321;28;20388;-75
2022/07/25 03:22:41;;;;;;;;;;;;;;;-144.99;100.00;61100.13;5030773;28;19963;-73
2022/07/25 03:25:08;;;;;;;;;;;;;;;-144.99;100.00;61100.13;5031288;28;20350;-74
2022/07/25 03:27:35;;;;;;;;;;;;;;;-144.99;100.00;61100.13;5034307;28;19928;-75
2022/07/25 03:30:01;;;;;;;;;;;;;;;-144.99;100.00;61100.13;5029474;28;19964;-76
2022/07/25 03:32:28;;;;;;;;;;;;;;;-144.99;100.00;61100.13;5030519;28;20392;-76
2022/07/25 03:34:54;;;;;;;;;;;;;;;-144.99;100.00;61100.13;5030028;28;19972;-74
2022/07/25 03:37:22;;;;;;;;;;;;;;;-144.99;100.00;61100.13;5031389;28;20020;-75
2022/07/25 03:39:49;;;;;;;;;;;;;;;-144.99;100.00;61100.13;5033134;28;19929;-75
2022/07/25 03:42:15;;;;;;;;;;;;;;;-144.99;100.00;61100.13;5032183;28;19929;-75
2022/07/25 03:44:42;;;;;;;;;;;;;;;-144.99;100.00;61100.13;5035108;28;19976;-75
2022/07/25 03:47:08;;;;;;;;;;;;;;;-144.99;100.00;61100.13;5031900;28;19960;-75
2022/07/25 03:49:35;;;;;;;;;;;;;;;-144.99;100.00;61100.13;5029593;28;19926;-75
2022/07/25 03:52:02;;;;;;;;;;;;;;;-144.99;100.00;61100.13;5026570;28;19925;-76
2022/07/25 03:54:30;;;;;;;;;;;;;;;-144.99;100.00;61100.13;5038402;28;19925;-76
2022/07/25 03:56:56;;;;;;;;;;;;;;;-144.99;100.00;61100.13;5032257;28;19925;-76
2022/07/25 03:59:23;;;;;;;;;;;;;;;-144.99;100.00;61100.13;5031820;28;19936;-76
2022/07/25 04:01:50;;;;;;;;;;;;;;;-144.99;100.00;61100.13;5029570;28;20297;-75
2022/07/25 04:04:17;;;;;;;;;;;;;;;-144.99;100.00;61100.13;5028709;28;19929;-74
2022/07/25 04:06:44;;;;;;;;;;;;;;;-144.99;100.00;61100.13;5029890;28;19943;-77
2022/07/25 04:09:11;;;;;;;;;;;;;;;-144.99;100.00;61100.13;5029704;28;20351;-75
2022/07/25 04:11:39;;;;;;;;;;;;;;;-144.99;100.00;61100.13;5030672;28;20423;-75
2022/07/25 04:14:06;;;;;;;;;;;;;;;-144.99;100.00;61100.13;5030774;28;19940;-75
2022/07/25 04:16:32;;;;;;;;;;;;;;;-144.99;100.00;61100.13;5029878;28;20369;-76
2022/07/25 04:18:59;;;;;;;;;;;;;;;-144.99;100.00;61100.13;5030432;28;20060;-75
2022/07/25 04:21:25;;;;;;;;;;;;;;;-144.99;100.00;61100.13;5028565;28;19932;-76
2022/07/25 04:23:52;;;;;;;;;;;;;;;-144.99;100.00;61100.13;5029995;28;19975;-75
2022/07/25 04:26:19;;;;;;;;;;;;;;;-144.99;100.00;61100.13;5030849;28;19964;-76
2022/07/25 04:28:47;;;;;;;;;;;;;;;-144.99;100.00;61100.13;5030695;28;19928;-75
2022/07/25 04:31:14;;;;;;;;;;;;;;;-144.99;100.00;61100.13;5030055;28;20360;-77
2022/07/25 04:33:40;;;;;;;;;;;;;;;-144.99;100.00;61100.13;5029888;28;19965;-74
2022/07/25 04:36:07;;;;;;;;;;;;;;;-144.99;100.00;61100.13;5028488;28;19925;-74
2022/07/25 04:38:34;;;;;;;;;;;;;;;-144.99;100.00;61100.13;5031056;28;19983;-73
2022/07/25 04:41:00;;;;;;;;;;;;;;;-144.99;100.00;61100.13;5030522;28;19972;-76
2022/07/25 04:43:27;;;;;;;;;;;;;;;-144.99;100.00;61100.13;5029875;28;20408;-76
2022/07/25 04:45:55;;;;;;;;;;;;;;;-144.99;100.00;61100.13;5030650;28;19929;-75
2022/07/25 04:48:22;;;;;;;;;;;;;;;-144.99;100.00;61100.13;5032369;28;19947;-76
2022/07/25 04:50:48;;;;;;;;;;;;;;;-144.99;100.00;61100.13;5028635;28;19932;-76
2022/07/25 04:53:14;;;;;;;;;;;;;;;-144.99;100.00;61100.13;5030114;28;20008;-75
2022/07/25 04:55:41;;;;;;;;;;;;;;;-144.99;100.00;61100.13;5037386;28;19925;-73
2022/07/25 04:58:08;;;;;;;;;;;;;;;-144.99;100.00;61100.13;5030793;28;19931;-75
2022/07/25 05:00:34;;;;;;;;;;;;;;;-144.99;100.00;61100.13;5029442;28;19936;-73
2022/07/25 05:03:02;;;;;;;;;;;;;;;-144.99;100.00;61100.13;5028527;28;19929;-75
2022/07/25 05:05:28;;;;;;;;;;;;;;;-144.99;100.00;61100.13;5026839;28;20164;-75
2022/07/25 05:07:55;;;;;;;;;;;;;;;-144.99;100.00;61100.13;5030273;28;19925;-73
2022/07/25 05:10:22;;;;;;;;;;;;;;;-144.99;100.00;61100.13;5030652;28;19990;-74
2022/07/25 05:12:48;;;;;;;;;;;;;;;-144.99;100.00;61100.13;5030121;28;20375;-75
2022/07/25 05:15:15;;;;;;;;;;;;;;;-144.99;100.00;61100.13;5030387;28;19948;-75
2022/07/25 05:17:42;;;;;;;;;;;;;;;-144.99;100.00;61100.13;5031032;28;20487;-75
2022/07/25 05:20:11;;;;;;;;;;;;;;;-144.99;100.00;61100.13;5029018;28;20479;-75
2022/07/25 05:22:37;;;;;;;;;;;;;;;-144.99;100.00;61100.13;5028996;28;19944;-75
2022/07/25 05:25:06;;;;;;;;;;;;;;;-144.99;100.00;61100.13;5029524;28;19933;-75
2022/07/25 05:27:32;;;;;;;;;;;;;;;-144.99;100.00;61100.13;5029248;28;19978;-76
2022/07/25 05:29:59;;;;;;;;;;;;;;;-144.99;100.00;61100.13;5028260;28;20372;-79
2022/07/25 05:32:26;;;;;;;;;;;;;;;-144.99;100.00;61100.13;5028150;28;19925;-75
2022/07/25 05:34:52;;;;;;;;;;;;;;;-144.99;100.00;61100.13;5026796;28;20020;-73
2022/07/25 05:37:20;;;;;;;;;;;;;;;-144.99;100.00;61100.13;5029337;28;19975;-75
2022/07/25 05:39:47;;;;;;;;;;;;;;;-144.99;100.00;61100.13;5029681;28;19925;-75
2022/07/25 05:42:14;;;;;;;;;;;;;;;-144.99;100.00;61100.13;5027764;28;20047;-76
2022/07/25 05:44:40;;;;;;;;;;;;;;;-144.99;100.00;61100.13;5027947;28;19971;-76
2022/07/25 05:47:08;;;;;;;;;;;;;;;-144.99;100.00;61100.13;5027983;28;19972;-74
2022/07/25 05:49:35;;;;;;;;;;;;;;;-144.99;100.00;61100.13;5028971;28;19925;-75
2022/07/25 05:52:01;;;;;;;;;;;;;;;-144.99;100.00;61100.13;5024995;28;19933;-76
2022/07/25 05:54:29;;;;;;;;;;;;;;;-144.99;100.00;61100.13;5034552;28;19990;-75
2022/07/25 05:56:56;;;;;;;;;;;;;;;-144.99;100.00;61100.13;5029748;28;19929;-74
2022/07/25 05:59:22;;;;;;;;;;;;;;;-144.99;100.00;61100.13;5028353;28;19929;-74
2022/07/25 06:01:49;;;;;;;;;;;;;;;-144.99;100.00;61100.13;5026014;28;19960;-75
2022/07/25 06:04:15;;;;;;;;;;;;;;;-144.99;100.00;61100.13;5025740;28;19925;-75
2022/07/25 06:06:42;;;;;;;;;;;;;;;-144.99;100.00;61100.13;5026148;28;19929;-75
2022/07/25 06:09:08;;;;;;;;;;;;;;;-144.99;100.00;61100.13;5027972;28;19925;-75
2022/07/25 06:11:36;;;;;;;;;;;;;;;-144.99;100.00;61100.13;5027317;28;19925;-74
2022/07/25 06:14:02;;;;;;;;;;;;;;;-144.99;100.00;61100.13;5028110;28;19932;-75
2022/07/25 06:16:29;;;;;;;;;;;;;;;-144.99;100.00;61100.13;5028256;28;20335;-75
2022/07/25 06:18:55;;;;;;;;;;;;;;;-144.99;100.00;61100.13;5028626;28;19925;-76
2022/07/25 06:21:22;;;;;;;;;;;;;;;-144.99;100.00;61100.13;5026045;28;20016;-75
2022/07/25 06:23:48;;;;;;;;;;;;;;;-144.99;100.00;61100.13;5026809;28;19933;-75
2022/07/25 06:26:15;;;;;;;;;;;;;;;-144.99;100.00;61100.13;5029063;28;19965;-75
2022/07/25 06:28:43;;;;;;;;;;;;;;;-144.99;100.00;61100.13;5033240;28;19937;-75
2022/07/25 06:31:09;;;;;;;;;;;;;;;-144.99;100.00;61100.13;5031246;28;20042;-76
2022/07/25 06:33:36;;;;;;;;;;;;;;;-144.99;100.00;61100.13;5031473;28;19995;-76
2022/07/25 06:36:04;;;;;;;;;;;;;;;-144.99;100.00;61100.13;5030075;28;19964;-76
2022/07/25 06:38:30;;;;;;;;;;;;;;;-144.99;100.00;61100.13;5031801;28;19979;-75
2022/07/25 06:40:56;;;;;;;;;;;;;;;-144.99;100.00;61100.13;5030857;28;19929;-75
2022/07/25 06:43:23;;;;;;;;;;;;;;;-144.99;100.00;61100.13;5030147;28;19933;-75
2022/07/25 06:45:51;;;;;;;;;;;;;;;-144.99;100.00;61100.13;5030252;28;20365;-77
2022/07/25 06:48:17;;;;;;;;;;;;;;;-144.99;100.00;61100.13;5019732;28;19926;-76
2022/07/25 06:50:44;;;;;;;;;;;;;;;-144.99;100.00;61100.13;5023096;28;19925;-76
2022/07/25 06:53:10;;;;;;;;;;;;;;;-144.99;100.00;61100.13;5030133;28;19929;-75
2022/07/25 06:55:37;;;;;;;;;;;;;;;-144.99;100.00;61100.13;5030160;28;20311;-75
2022/07/25 06:58:04;;;;;;;;;;;;;;;-144.99;100.00;61100.13;5030573;28;19979;-75
2022/07/25 07:00:30;;;;;;;;;;;;;;;-144.99;100.00;61100.13;5029987;28;20375;-76
2022/07/25 07:03:00;;;;;;;;;;;;;;;-144.99;100.00;61100.13;5028174;28;19952;-76
2022/07/25 07:05:27;;;;;;;;;;;;;;;-144.99;100.00;61100.13;5028930;28;20329;-76
2022/07/25 07:07:54;;;;;;;;;;;;;;;-144.99;100.00;61100.13;5030247;28;19975;-76
2022/07/25 07:10:21;;;;;;;;;;;;;;;-144.99;100.00;61100.13;5030260;28;20285;-75
2022/07/25 07:12:48;;;;;;;;;;;;;;;-144.99;100.00;61100.13;5030117;28;19925;-75
2022/07/25 07:15:15;;;;;;;;;;;;;;;-144.99;100.00;61100.13;5029362;28;20032;-76
2022/07/25 07:17:41;;;;;;;;;;;;;;;-144.99;100.00;61100.13;5030256;28;20020;-76
2022/07/25 07:20:10;;;;;;;;;;;;;;;-144.99;100.00;61100.13;5028061;28;19972;-75
2022/07/25 07:22:43;;;;;;;;;;;;;;;-144.99;100.00;61100.13;5030751;28;19941;-76
2022/07/25 07:25:10;;;;;;;;;;;;;;;-144.99;100.00;61100.13;5029668;28;20481;-75
2022/07/25 07:27:36;;;;;;;;;;;;;;;-144.99;100.00;61100.13;5029876;28;20598;-74
2022/07/25 07:30:03;;;;;;;;;;;;;;;-144.99;100.00;61100.13;5030187;28;20238;-74
2022/07/25 07:32:29;;;;;;;;;;;;;;;-144.99;100.00;61100.13;5030045;28;19925;-75
2022/07/25 07:34:56;;;;;;;;;;;;;;;-144.99;100.00;61100.13;5028827;28;19999;-75
2022/07/25 07:37:24;;;;;;;;;;;;;;;-144.99;100.00;61100.13;5029689;28;19925;-75
2022/07/25 07:39:50;;;;;;;;;;;;;;;-144.99;100.00;61100.13;5029996;28;20024;-76
2022/07/25 07:42:17;;;;;;;;;;;;;;;-144.99;100.00;61100.13;5029207;28;19933;-77
2022/07/25 07:44:43;;;;;;;;;;;;;;;-144.99;100.00;61100.13;5029607;28;20403;-75
2022/07/25 07:47:10;;;;;;;;;;;;;;;-144.99;100.00;61100.13;5029678;28;19933;-75
2022/07/25 07:49:36;;;;;;;;;;;;;;;-144.99;100.00;61100.13;5026445;28;19929;-76
2022/07/25 07:52:03;;;;;;;;;;;;;;;-144.99;100.00;61100.13;5013521;28;20007;-76
2022/07/25 07:57:15;;;;;;;;;;;;;;;-144.99;100.00;61100.13;5029554;28;19932;-75
2022/07/25 07:59:41;;;;;;;;;;;;;;;-144.99;100.00;61100.13;5030932;28;19925;-78
2022/07/25 08:02:08;;;;;;;;;;;;;;;-144.99;100.00;61100.13;5028999;28;20008;-75
2022/07/25 08:04:34;;;;;;;;;;;;;;;-144.99;100.00;61100.13;5028195;28;19956;-74
2022/07/25 08:07:01;;;;;;;;;;;;;;;-144.99;100.00;61100.13;5024852;28;19925;-75
2022/07/25 08:09:27;;;;;;;;;;;;;;;-144.99;100.00;61100.13;5029582;28;20011;-76
2022/07/25 08:11:56;;;;;;;;;;;;;;;-144.99;100.00;61100.13;5026085;28;19984;-74
2022/07/25 08:14:22;;;;;;;;;;;;;;;-144.99;100.00;61100.13;5029309;28;19929;-75
2022/07/25 08:16:49;;;;;;;;;;;;;;;-144.99;100.00;61100.13;5029156;28;19968;-76
2022/07/25 08:19:16;;;;;;;;;;;;;;;-144.99;100.00;61100.13;5029038;28;19929;-77
2022/07/25 08:21:42;;;;;;;;;;;;;;;-144.99;100.00;61100.13;5026191;28;20446;-76
2022/07/25 08:24:09;;;;;;;;;;;;;;;-144.99;100.00;61100.13;5033682;28;20318;-74
2022/07/25 08:26:36;;;;;;;;;;;;;;;-144.99;100.00;61100.13;5030425;28;19929;-75
2022/07/25 08:29:04;;;;;;;;;;;;;;;-144.99;100.00;61100.13;5029432;28;19941;-76
2022/07/25 08:31:31;;;;;;;;;;;;;;;-144.99;100.00;61100.13;5027707;28;20355;-76
2022/07/25 08:33:57;;;;;;;;;;;;;;;-144.99;100.00;61100.13;5033656;28;19932;-75
2022/07/25 08:36:24;;;;;;;;;;;;;;;-144.99;100.00;61100.13;5035617;28;19985;-75
2022/07/25 08:38:50;;;;;;;;;;;;;;;-144.99;100.00;61100.13;5035458;28;19975;-75
2022/07/25 08:41:17;;;;;;;;;;;;;;;-144.99;100.00;61100.13;5034549;28;19956;-76
2022/07/25 08:43:45;;;;;;;;;;;;;;;-144.99;100.00;61100.13;5033955;28;19925;-76
2022/07/25 08:46:14;;;;;;;;;;;;;;;-144.99;100.00;61100.13;5032568;28;19987;-75
2022/07/25 08:48:43;;;;;;;;;;;;;;;-144.99;100.00;61100.13;5030202;28;20004;-76
2022/07/25 08:51:10;;;;;;;;;;;;;;;-144.99;100.00;61100.13;5025015;28;20361;-74
2022/07/25 08:53:36;;;;;;;;;;;;;;;-144.99;100.00;61100.13;5029015;28;19925;-74
2022/07/25 08:56:04;;;;;;;;;;;;;;;-144.99;100.00;61100.13;5048447;22;19923;-66
2022/07/25 08:58:30;;;;;;;;;;;;;;;-144.99;100.00;61100.13;5068985;28;19928;-65
2022/07/25 09:00:57;;;;;;;;;;;;;;;-144.99;100.00;61100.13;5060409;28;20312;-65
2022/07/25 09:03:26;;;;;;;;;;;;;;;-144.99;100.00;61100.13;5065485;28;19925;-65
2022/07/25 09:05:52;;;;;;;;;;;;;;;-144.99;100.00;61100.13;5070000;28;19972;-65
2022/07/25 09:08:19;;;;;;;;;;;;;;;-144.99;100.00;61100.13;5070226;28;20342;-65
2022/07/25 09:10:46;;;;;;;;;;;;;;;-144.99;100.00;61100.13;5071730;28;20355;-65
2022/07/25 09:13:13;;;;;;;;;;;;;;;-144.99;100.00;61100.13;5085320;28;19974;-65
2022/07/25 09:15:41;;;;;;;;;;;;;;;-144.99;100.00;61100.13;5088111;28;19924;-65
2022/07/25 09:18:09;;;;;;;;;;;;;;;-144.99;100.00;61100.13;5083524;28;19925;-65
2022/07/25 09:20:44;;;;;;;;;;;;;;;-144.99;100.00;61100.13;5074634;28;20369;-63
2022/07/25 09:23:10;;;;;;;;;;;;;;;-144.99;100.00;61100.13;5073833;28;19925;-64
2022/07/25 09:25:37;;;;;;;;;;;;;;;-144.99;100.00;61100.13;5069532;28;19949;-65
2022/07/25 09:28:11;;;;;;;;;;;;;;;-144.99;100.00;61100.13;5072652;28;19924;-63
2022/07/25 09:30:37;;;;;;;;;;;;;;;-144.99;100.00;61100.13;5069511;28;19979;-65
2022/07/25 09:33:04;;;;;;;;;;;;;;;-144.99;100.00;61100.13;5076388;28;20014;-64
2022/07/25 09:35:32;;;;;;;;;;;;;;;-144.99;100.00;61100.13;5075051;28;19956;-64
2022/07/25 09:38:08;;;;;;;;;;;;;;;-144.99;100.00;61100.13;5072943;28;19931;-66
2022/07/25 09:40:35;;;;;;;;;;;;;;;-144.99;100.00;61100.13;5058706;28;19980;-66
2022/07/25 09:43:01;;;;;;;;;;;;;;;-144.99;100.00;61100.13;5073213;28;20438;-64
2022/07/25 09:45:27;;;;;;;;;;;;;;;-144.99;100.00;61100.13;5070426;28;19990;-64
2022/07/25 09:47:55;;;;;;;;;;;;;;;-144.99;100.00;61100.13;5070412;28;19931;-63
2022/07/25 09:50:22;;;;;;;;;;;;;;;-144.99;100.00;61100.13;5065993;28;19928;-65
2022/07/25 09:52:49;;;;;;;;;;;;;;;-144.99;100.00;61100.13;5061577;28;19978;-64
2022/07/25 09:55:18;;;;;;;;;;;;;;;-144.99;100.00;61100.13;5070185;28;20384;-65
2022/07/25 09:57:46;;;;;;;;;;;;;;;-144.99;100.00;61100.13;5069696;28;19931;-64
2022/07/25 10:00:13;;;;;;;;;;;;;;;-144.99;100.00;61100.13;5070162;28;20031;-64
2022/07/25 10:02:52;;;;;;;;;;;;;;;-144.99;100.00;61100.13;5073286;28;19987;-69
2022/07/25 10:05:25;;;;;;;;;;;;;;;-144.99;100.00;61100.13;5073210;28;19975;-69
2022/07/25 10:07:54;;;;;;;;;;;;;;;-144.99;100.00;61100.13;5073120;28;19924;-64
2022/07/25 10:10:29;;;;;;;;;;;;;;;-144.99;100.00;61100.13;5063296;28;19924;-65
2022/07/25 10:12:59;;;;;;;;;;;;;;;-144.99;100.00;61100.13;5072770;28;19963;-65
2022/07/25 10:15:26;;;;;;;;;;;;;;;-144.99;100.00;61100.13;5072451;28;19932;-65
2022/07/25 10:18:02;;;;;;;;;;;;;;;-144.99;100.00;61100.13;5072674;28;20401;-65
2022/07/25 10:20:29;;;;;;;;;;;;;;;-144.99;100.00;61100.13;5072718;28;19928;-65
2022/07/25 10:22:55;;;;;;;;;;;;;;;-144.99;100.00;61100.13;5072520;28;19925;-70
2022/07/25 10:25:22;;;;;;;;;;;;;;;-144.99;100.00;61100.13;5073360;28;19978;-68
2022/07/25 10:27:52;;;;;;;;;;;;;;;-144.99;100.00;61100.13;5072767;28;20016;-67
2022/07/25 10:30:20;;;;;;;;;;;;;;;-144.99;100.00;61100.13;5071452;28;19979;-64
2022/07/25 10:32:49;;;;;;;;;;;;;;;-144.99;100.00;61100.13;5072429;28;19998;-65
2022/07/25 10:35:16;;;;;;;;;;;;;;;-144.99;100.00;61100.13;5072442;28;19967;-65
2022/07/25 10:37:44;;;;;;;;;;;;;;;-144.99;100.00;61100.13;5070060;28;20019;-64
2022/07/25 10:40:11;;;;;;;;;;;;;;;-144.99;100.00;61100.13;5065873;28;19924;-64
2022/07/25 10:42:43;;;;;;;;;;;;;;;-144.99;100.00;61100.13;5071944;28;19928;-64
2022/07/25 10:45:17;;;;;;;;;;;;;;;-144.99;100.00;61100.13;5072147;28;19933;-64
2022/07/25 10:47:51;;;;;;;;;;;;;;;-144.99;100.00;61100.13;5072125;28;20078;-65
2022/07/25 10:50:18;;;;;;;;;;;;;;;-144.99;100.00;61100.13;5067931;28;19925;-63
2022/07/25 10:52:46;;;;;;;;;;;;;;;-144.99;100.00;61100.13;5062168;28;20324;-64
2022/07/25 10:55:22;;;;;;;;;;;;;;;-144.99;100.00;61100.13;5072004;28;20020;-65
2022/07/25 10:57:58;;;;;;;;;;;;;;;-144.99;100.00;61100.13;5072760;28;19924;-64
2022/07/25 11:00:26;;;;;;;;;;;;;;;-144.99;100.00;61100.13;5071754;28;19925;-64
2022/07/25 11:02:55;;;;;;;;;;;;;;;-144.99;100.00;61100.13;5072265;28;19924;-64
2022/07/25 11:05:22;;;;;;;;;;;;;;;-144.99;100.00;61100.13;5071842;28;19932;-64
2022/07/25 11:07:51;;;;;;;;;;;;;;;-144.99;100.00;61100.13;5073236;28;19924;-65
2022/07/25 11:10:24;;;;;;;;;;;;;;;-144.99;100.00;61100.13;5075373;28;19956;-65
2022/07/25 11:12:51;;;;;;;;;;;;;;;-144.99;100.00;61100.13;5074064;28;20027;-65
2022/07/25 11:15:21;;;;;;;;;;;;;;;-144.99;100.00;61100.13;5073628;28;19924;-64
2022/07/25 11:17:52;;;;;;;;;;;;;;;-144.99;100.00;61100.13;5074524;28;19928;-65
2022/07/25 11:20:19;;;;;;;;;;;;;;;-144.99;100.00;61100.13;5074607;28;19958;-64
2022/07/25 11:22:51;;;;;;;;;;;;;;;-144.99;100.00;61100.13;5074203;28;19924;-65
2022/07/25 11:25:20;;;;;;;92.17;66.20;;;;;;;-144.99;100.00;61100.13;5070398;28;24521;-65
2022/07/25 11:27:49;;;;;;;;;;;;;;;-144.99;100.00;61100.13;5071192;28;20418;-63
2022/07/25 11:30:17;;;;;;;;;;;;;;;-144.99;100.00;61100.13;5063206;28;19928;-65
2022/07/25 11:32:45;;;;;;;;;;;;;;;-144.99;100.00;61100.13;5070154;28;19942;-64
2022/07/25 11:35:13;;;;;;;;;;;;;;;-144.99;100.00;61100.13;5070701;28;19970;-64
2022/07/25 11:37:42;;;;;;;;;;;;;;;-144.99;100.00;61100.13;5070844;28;19955;-64
2022/07/25 11:40:09;;;;;;;;;;;;;;;-144.99;100.00;61100.13;5071680;28;20301;-64
2022/07/25 11:42:40;;;;;;;;;;;;;;;-144.99;100.00;61100.13;5068922;28;19962;-64
2022/07/25 11:45:15;;;;;;;;;;;;;;;-144.99;100.00;61100.13;5070847;28;19971;-63
2022/07/25 11:47:42;;;;;;;;;;;;;;;-144.99;100.00;61100.13;5071148;28;19928;-63
2022/07/25 11:50:13;;;;;;;;;;;;;;;-144.99;100.00;61100.13;5070405;28;19946;-64
2022/07/25 11:52:42;;;;;;;;;;;;;;;-144.99;100.00;61100.13;5070770;28;19920;-63
2022/07/25 11:55:10;;;;;;;;;;;;;;;-144.99;100.00;61100.13;5069945;28;19993;-64
2022/07/25 11:57:38;;;;;;;;;;;;;;;-144.99;100.00;61100.13;5059467;28;20090;-64
2022/07/25 12:00:07;;;;;;;;;;;;;;;-144.99;100.00;61100.13;5070913;28;19969;-64
2022/07/25 12:02:35;;;;;;;;;;;;;;;-144.99;100.00;61100.13;5070312;28;19927;-64
2022/07/25 12:05:03;;;;;;;;;;;;;;;-144.99;100.00;61100.13;5069025;28;19931;-64
2022/07/25 12:07:40;;;;;;;;;;;;;;;-144.99;100.00;61100.13;5070516;28;19998;-64
2022/07/25 12:10:09;;;;;;;;;;;;;;;-144.99;100.00;61100.13;5070608;28;19932;-64
2022/07/25 12:12:43;;;;;;;;;;;;;;;-144.99;100.00;61100.13;5070015;28;19921;-64
2022/07/25 12:15:10;;;;;;;;;;;;;;;-144.99;100.00;61100.13;5067861;28;19964;-64
2022/07/25 12:17:36;;;;;;;;;;;;;;;-144.99;100.00;61100.13;5070161;28;19928;-64
2022/07/25 12:20:03;;;;;;;;;;;;;;;-144.99;100.00;61100.13;5069821;28;19928;-64
2022/07/25 12:22:30;;;;;;;;;;;;;;;-144.99;100.00;61100.13;5070431;28;20007;-64